Time;durP1;ratioP1;P1;durP2;ratioP2;P2;SDS_P1;SDS_P2;PMS_P1;PMS_P2;Temp;Humidity;BMP_temperature;BMP_pressure;BME280_temperature;BME280_humidity;BME280_pressure;Samples;Min_cycle;Max_cycle;Signal;HPM_P1;HPM_P2
2021/05/29 00:02:23;;;;;;;7.10;6.07;;;12.30;91.50;;;;;;5037627;28;20029;-57
2021/05/29 00:04:49;;;;;;;5.75;4.97;;;12.10;92.00;;;;;;5047806;28;20447;-57
2021/05/29 00:07:17;;;;;;;4.93;4.15;;;12.00;92.00;;;;;;5041112;28;20039;-58
2021/05/29 00:09:42;;;;;;;4.55;4.00;;;12.10;91.90;;;;;;5045863;28;20037;-53
2021/05/29 00:12:10;;;;;;;4.93;4.15;;;12.10;91.80;;;;;;5045171;28;20092;-54
2021/05/29 00:14:37;;;;;;;4.40;4.00;;;12.10;91.80;;;;;;5047738;28;20025;-53
2021/05/29 00:17:04;;;;;;;4.38;3.95;;;12.00;91.90;;;;;;5043031;28;20037;-62
2021/05/29 00:19:30;;;;;;;4.68;4.18;;;11.80;92.30;;;;;;5043803;28;20029;-55
2021/05/29 00:21:56;;;;;;;5.35;4.30;;;11.70;92.40;;;;;;5040738;28;20108;-55
2021/05/29 00:24:22;;;;;;;5.35;3.80;;;11.70;92.40;;;;;;5048373;28;20520;-53
2021/05/29 00:26:47;;;;;;;8.35;4.47;;;11.80;92.30;;;;;;5049312;28;20413;-55
2021/05/29 00:29:13;;;;;;;5.32;4.13;;;11.70;92.20;;;;;;5039861;28;20551;-55
2021/05/29 00:31:38;;;;;;;5.32;4.20;;;11.50;92.80;;;;;;5044375;28;20056;-56
2021/05/29 00:34:04;;;;;;;7.15;4.28;;;11.60;92.50;;;;;;5048799;28;20041;-52
2021/05/29 00:36:30;;;;;;;5.63;4.28;;;11.50;92.70;;;;;;5054065;28;20052;-54
2021/05/29 00:38:56;;;;;;;5.25;4.50;;;11.50;92.80;;;;;;5051970;28;20056;-55
2021/05/29 00:41:21;;;;;;;9.20;4.72;;;11.30;93.10;;;;;;5048557;28;20485;-55
2021/05/29 00:43:47;;;;;;;5.07;4.40;;;11.40;93.00;;;;;;5054307;28;20643;-52
2021/05/29 00:46:13;;;;;;;6.28;4.60;;;11.30;93.30;;;;;;5036992;28;20029;-52
2021/05/29 00:48:39;;;;;;;6.95;4.68;;;11.40;93.20;;;;;;5053284;28;20032;-56
2021/05/29 00:51:06;;;;;;;4.40;4.00;;;11.30;93.30;;;;;;5063877;28;20037;-50
2021/05/29 00:53:33;;;;;;;5.53;4.38;;;11.40;93.00;;;;;;5053475;28;20040;-56
2021/05/29 00:56:02;;;;;;;5.40;4.40;;;11.50;93.10;;;;;;5063776;28;20059;-52
2021/05/29 00:58:28;;;;;;;6.10;4.13;;;11.60;92.90;;;;;;5053167;28;20440;-54
2021/05/29 01:00:54;;;;;;;4.45;3.95;;;11.70;92.70;;;;;;5048366;28;20041;-52
2021/05/29 01:03:20;;;;;;;5.85;4.60;;;11.80;92.50;;;;;;5053215;28;20044;-54
2021/05/29 01:05:46;;;;;;;5.60;4.38;;;12.00;92.10;;;;;;5050338;28;20041;-54
2021/05/29 01:08:13;;;;;;;6.57;5.07;;;11.90;92.10;;;;;;5052802;28;20497;-53
2021/05/29 01:10:40;;;;;;;7.68;5.90;;;11.90;92.20;;;;;;5064022;28;20119;-55
2021/05/29 01:13:07;;;;;;;5.13;4.32;;;11.90;92.00;;;;;;5053468;28;20075;-51
2021/05/29 01:15:40;;;;;;;5.30;4.50;;;11.30;93.00;;;;;;5053221;28;20094;-53
2021/05/29 01:18:07;;;;;;;4.30;3.80;;;11.20;93.30;;;;;;5052751;28;20430;-54
2021/05/29 01:20:33;;;;;;;5.03;4.53;;;11.20;93.30;;;;;;5062164;28;20040;-55
2021/05/29 01:22:59;;;;;;;7.15;4.50;;;11.40;92.70;;;;;;5054927;28;20477;-53
2021/05/29 01:25:32;;;;;;;5.78;4.18;;;11.40;92.70;;;;;;5058668;28;20032;-56
2021/05/29 01:28:10;;;;;;;5.88;4.32;;;11.50;92.50;;;;;;5053465;28;20048;-54
2021/05/29 01:30:44;;;;;;;4.70;3.97;;;11.30;92.60;;;;;;5046922;28;20025;-53
2021/05/29 01:33:11;;;;;;;5.70;3.80;;;11.20;92.60;;;;;;5052870;28;20116;-52
2021/05/29 01:35:37;;;;;;;4.50;3.70;;;11.00;93.10;;;;;;5058916;28;20517;-52
2021/05/29 01:38:03;;;;;;;4.65;3.80;;;11.10;93.00;;;;;;5051968;28;20040;-52
2021/05/29 01:40:28;;;;;;;4.47;4.07;;;11.20;92.80;;;;;;5052209;28;20025;-53
2021/05/29 01:42:56;;;;;;;5.35;3.90;;;11.20;92.60;;;;;;5052604;28;20556;-52
2021/05/29 01:45:26;;;;;;;5.55;3.92;;;11.30;92.60;;;;;;5048944;28;20047;-55
2021/05/29 01:47:51;;;;;;;5.13;3.88;;;11.40;92.40;;;;;;5051812;28;20063;-55
2021/05/29 01:50:18;;;;;;;4.70;3.55;;;11.30;92.40;;;;;;5041090;28;20392;-53
2021/05/29 01:52:56;;;;;;;4.60;3.80;;;11.20;92.60;;;;;;5052475;28;20033;-57
2021/05/29 01:55:29;;;;;;;4.63;4.00;;;11.20;92.70;;;;;;5063568;28;20041;-56
2021/05/29 01:57:56;;;;;;;3.80;3.40;;;11.20;92.70;;;;;;5034684;28;20444;-54
2021/05/29 02:00:25;;;;;;;5.50;3.90;;;11.20;93.00;;;;;;5052523;28;20048;-54
2021/05/29 02:02:51;;;;;;;5.20;4.10;;;11.10;92.90;;;;;;5052151;28;20488;-52
2021/05/29 02:05:29;;;;;;;4.60;4.10;;;11.20;92.70;;;;;;5061362;28;20466;-52
2021/05/29 02:07:57;;;;;;;4.63;3.60;;;11.00;92.90;;;;;;5051512;28;20033;-57
2021/05/29 02:10:25;;;;;;;5.72;4.05;;;11.00;93.10;;;;;;5061621;28;20415;-51
2021/05/29 02:12:53;;;;;;;4.53;4.10;;;11.00;93.10;;;;;;5052962;28;20026;-53
2021/05/29 02:15:21;;;;;;;5.30;4.20;;;11.10;92.80;;;;;;5043123;28;20521;-55
2021/05/29 02:17:52;;;;;;;5.78;4.65;;;11.00;93.00;;;;;;5048010;28;20029;-54
2021/05/29 02:20:27;;;;;;;5.15;4.15;;;11.00;93.00;;;;;;5049445;28;20025;-55
2021/05/29 02:22:53;;;;;;;5.72;4.78;;;10.90;93.00;;;;;;5052348;28;20106;-51
2021/05/29 02:25:18;;;;;;;8.65;4.75;;;10.90;92.90;;;;;;5057760;28;20107;-56
2021/05/29 02:27:44;;;;;;;4.97;4.47;;;10.90;93.10;;;;;;5056345;28;20033;-57
2021/05/29 02:30:10;;;;;;;5.68;4.78;;;10.90;93.20;;;;;;5051760;28;20041;-54
2021/05/29 02:32:36;;;;;;;5.57;4.35;;;10.90;93.30;;;;;;5051934;28;20052;-54
2021/05/29 02:35:02;;;;;;;6.50;4.45;;;11.00;93.20;;;;;;5056192;28;20496;-52
2021/05/29 02:37:27;;;;;;;5.38;4.85;;;11.00;93.10;;;;;;5061110;28;20033;-55
2021/05/29 02:39:53;;;;;;;6.93;5.10;;;11.10;92.80;;;;;;5055114;28;20102;-56
2021/05/29 02:42:19;;;;;;;5.03;4.45;;;11.20;92.50;;;;;;5055614;28;20095;-56
2021/05/29 02:44:45;;;;;;;6.82;5.30;;;11.30;92.30;;;;;;5055922;28;20033;-53
2021/05/29 02:47:10;;;;;;;6.75;4.90;;;11.20;92.20;;;;;;5056017;28;20101;-56
2021/05/29 02:49:36;;;;;;;7.22;4.97;;;11.00;92.90;;;;;;5044614;28;20072;-55
2021/05/29 02:52:02;;;;;;;7.40;5.80;;;11.00;92.70;;;;;;5051284;28;20099;-54
2021/05/29 02:54:27;;;;;;;6.35;5.10;;;10.90;92.60;;;;;;5055210;28;20029;-56
2021/05/29 02:56:53;;;;;;;6.20;5.55;;;10.90;92.70;;;;;;5038175;28;20543;-55
2021/05/29 02:59:18;;;;;;;7.70;5.40;;;11.00;92.50;;;;;;5055577;28;20056;-51
2021/05/29 03:01:44;;;;;;;5.80;5.20;;;11.00;92.50;;;;;;5059923;28;20501;-53
2021/05/29 03:04:10;;;;;;;6.55;5.18;;;11.00;92.60;;;;;;5055267;28;20108;-54
2021/05/29 03:06:36;;;;;;;8.27;5.30;;;11.00;92.50;;;;;;5050139;28;20056;-56
2021/05/29 03:09:03;;;;;;;6.10;4.93;;;11.00;92.50;;;;;;5055193;28;20082;-54
2021/05/29 03:11:40;;;;;;;6.70;5.43;;;11.00;92.30;;;;;;5050242;28;20105;-53
2021/05/29 03:14:06;;;;;;;6.93;5.20;;;10.90;92.40;;;;;;5055370;28;20439;-54
2021/05/29 03:16:32;;;;;;;6.45;5.63;;;10.90;92.50;;;;;;5049051;28;20029;-55
2021/05/29 03:18:57;;;;;;;11.93;5.70;;;10.90;92.40;;;;;;5055096;28;20044;-56
2021/05/29 03:21:23;;;;;;;6.18;5.55;;;10.90;92.40;;;;;;5054741;28;20489;-53
2021/05/29 03:23:48;;;;;;;7.63;5.90;;;10.90;92.40;;;;;;5054741;28;20059;-54
2021/05/29 03:26:14;;;;;;;7.40;6.53;;;11.00;92.30;;;;;;5057274;28;20036;-57
2021/05/29 03:28:39;;;;;;;8.60;6.50;;;11.00;92.50;;;;;;5053145;28;20033;-56
2021/05/29 03:31:05;;;;;;;7.10;6.20;;;11.00;92.30;;;;;;5053085;28;20455;-53
2021/05/29 03:33:31;;;;;;;7.05;6.35;;;10.90;92.60;;;;;;5055060;28;20052;-53
2021/05/29 03:35:56;;;;;;;7.82;6.53;;;10.90;92.50;;;;;;5049697;28;20347;-52
2021/05/29 03:38:22;;;;;;;9.25;6.68;;;10.90;92.50;;;;;;5039090;28;20488;-56
2021/05/29 03:40:47;;;;;;;9.05;6.80;;;10.90;92.50;;;;;;5055073;28;20112;-52
2021/05/29 03:43:13;;;;;;;8.13;6.95;;;11.00;92.50;;;;;;5054768;28;20025;-55
2021/05/29 03:45:39;;;;;;;9.38;7.35;;;11.00;92.60;;;;;;5056489;28;20477;-51
2021/05/29 03:48:05;;;;;;;8.88;7.53;;;11.00;92.50;;;;;;5058622;28;20044;-56
2021/05/29 03:50:31;;;;;;;7.95;6.85;;;10.90;92.60;;;;;;5052802;28;20044;-57
2021/05/29 03:52:56;;;;;;;7.82;7.03;;;10.90;92.60;;;;;;5042946;28;20029;-56
2021/05/29 03:55:23;;;;;;;9.32;6.45;;;10.90;92.80;;;;;;5022941;28;20100;-54
2021/05/29 03:57:50;;;;;;;9.25;6.97;;;11.10;92.60;;;;;;5053891;28;20496;-54
2021/05/29 04:00:18;;;;;;;14.10;10.35;;;11.10;92.50;;;;;;5054429;28;20025;-54
2021/05/29 04:02:44;;;;;;;16.17;10.48;;;11.20;92.30;;;;;;5053975;28;20511;-54
2021/05/29 04:05:11;;;;;;;11.68;7.95;;;11.30;92.30;;;;;;5054215;28;20089;-56
2021/05/29 04:07:39;;;;;;;9.88;7.38;;;11.40;92.10;;;;;;5054389;28;20496;-53
2021/05/29 04:10:09;;;;;;;11.32;7.30;;;11.40;91.80;;;;;;5053742;28;20484;-53
2021/05/29 04:12:34;;;;;;;10.85;7.60;;;11.40;92.00;;;;;;5041097;28;20669;-55
2021/05/29 04:15:00;;;;;;;12.10;8.48;;;11.40;91.90;;;;;;5054112;28;20037;-54
2021/05/29 04:17:27;;;;;;;11.32;8.45;;;11.40;92.00;;;;;;5041156;28;20145;-56
2021/05/29 04:19:52;;;;;;;11.65;8.73;;;11.40;92.30;;;;;;5054079;28;20045;-53
2021/05/29 04:22:18;;;;;;;11.05;8.05;;;11.50;91.80;;;;;;5064810;28;20040;-56
2021/05/29 04:24:44;;;;;;;10.48;7.90;;;11.50;91.90;;;;;;5057231;28;20037;-57
2021/05/29 04:27:10;;;;;;;10.68;9.00;;;11.30;92.40;;;;;;5054751;28;20055;-53
2021/05/29 04:29:36;;;;;;;11.55;8.18;;;11.20;92.50;;;;;;5056796;28;20501;-54
2021/05/29 04:32:03;;;;;;;13.52;8.35;;;11.20;92.40;;;;;;5054201;28;20064;-53
2021/05/29 04:34:29;;;;;;;13.50;9.25;;;11.20;92.60;;;;;;5053261;28;20037;-55
2021/05/29 04:36:54;;;;;;;12.30;9.75;;;11.00;93.00;;;;;;5047226;28;20022;-54
2021/05/29 04:39:20;;;;;;;12.30;9.90;;;10.70;93.60;;;;;;5046611;28;20400;-51
2021/05/29 04:41:45;;;;;;;11.95;10.13;;;10.90;93.00;;;;;;5053179;28;20172;-58
2021/05/29 04:44:11;;;;;;;14.85;10.20;;;10.60;93.70;;;;;;5053540;28;20033;-55
2021/05/29 04:46:39;;;;;;;13.85;10.73;;;10.70;93.60;;;;;;5057005;28;20445;-54
2021/05/29 04:49:05;;;;;;;17.13;10.38;;;11.00;93.20;;;;;;5054015;28;20045;-55
2021/05/29 04:51:31;;;;;;;15.32;10.68;;;11.30;92.80;;;;;;5053540;28;20083;-56
2021/05/29 04:53:57;;;;;;;14.95;10.95;;;11.20;93.00;;;;;;5053487;28;20029;-52
2021/05/29 04:56:22;;;;;;;14.38;11.10;;;11.20;93.00;;;;;;5052903;28;20076;-54
2021/05/29 04:58:48;;;;;;;12.57;10.18;;;11.30;93.00;;;;;;5048195;28;20025;-55
2021/05/29 05:01:14;;;;;;;14.93;12.25;;;11.40;92.80;;;;;;5059894;28;20110;-56
2021/05/29 05:03:40;;;;;;;15.60;12.30;;;11.40;92.60;;;;;;5057987;28;20087;-55
2021/05/29 05:06:11;;;;;;;18.48;12.60;;;11.40;92.60;;;;;;5053668;28;20048;-54
2021/05/29 05:08:36;;;;;;;15.75;12.75;;;11.50;92.60;;;;;;5053085;28;20120;-53
2021/05/29 05:11:02;;;;;;;13.85;11.73;;;11.50;92.60;;;;;;5052782;28;20071;-58
2021/05/29 05:13:29;;;;;;;14.52;11.40;;;11.50;92.70;;;;;;5047571;28;20033;-56
2021/05/29 05:15:54;;;;;;;18.35;13.18;;;11.50;92.60;;;;;;5052532;28;20078;-57
2021/05/29 05:18:22;;;;;;;16.67;11.82;;;11.50;92.50;;;;;;5058595;28;20397;-53
2021/05/29 05:20:48;;;;;;;15.75;12.35;;;11.50;92.70;;;;;;5052970;28;20424;-54
2021/05/29 05:23:13;;;;;;;15.70;11.73;;;11.40;92.90;;;;;;5045832;28;20373;-53
2021/05/29 05:25:39;;;;;;;20.38;12.80;;;11.40;93.20;;;;;;5045286;28;20031;-54
2021/05/29 05:28:05;;;;;;;15.68;13.02;;;11.60;93.10;;;;;;5060823;28;20496;-55
2021/05/29 05:30:31;;;;;;;16.65;12.52;;;11.60;92.90;;;;;;5052638;28;20029;-56
2021/05/29 05:33:03;;;;;;;16.50;13.43;;;11.70;92.80;;;;;;5059125;28;20546;-55
2021/05/29 05:35:30;;;;;;;15.20;13.05;;;11.50;93.10;;;;;;5052987;28;20025;-52
2021/05/29 05:37:55;;;;;;;18.10;13.35;;;11.50;92.90;;;;;;5059321;28;20423;-53
2021/05/29 05:40:21;;;;;;;15.95;13.35;;;11.80;92.70;;;;;;5053402;28;20044;-56
2021/05/29 05:42:47;;;;;;;17.52;13.90;;;11.80;92.90;;;;;;5052798;28;20173;-56
2021/05/29 05:45:13;;;;;;;17.70;13.93;;;12.10;92.30;;;;;;5052147;28;20116;-55
2021/05/29 05:47:39;;;;;;;18.20;13.60;;;12.20;92.20;;;;;;5052698;28;20505;-56
2021/05/29 05:50:08;;;;;;;21.70;14.68;;;12.50;91.60;;;;;;5052311;28;20032;-56
2021/05/29 05:52:33;;;;;;;20.90;14.38;;;12.50;91.60;;;;;;5048893;28;20108;-55
2021/05/29 05:54:59;;;;;;;24.73;15.20;;;12.40;91.60;;;;;;5044159;28;20060;-51
2021/05/29 05:57:25;;;;;;;16.88;13.88;;;12.30;91.70;;;;;;5052332;28;20124;-51
2021/05/29 05:59:50;;;;;;;19.67;15.32;;;12.20;91.60;;;;;;5034145;28;20025;-54
2021/05/29 06:02:16;;;;;;;19.73;15.35;;;12.00;92.00;;;;;;5051548;28;20049;-53
2021/05/29 06:04:41;;;;;;;23.88;14.68;;;12.00;92.00;;;;;;5039748;28;20050;-55
2021/05/29 06:07:07;;;;;;;22.65;15.65;;;12.00;92.10;;;;;;5051407;28;20025;-55
2021/05/29 06:09:32;;;;;;;17.95;15.00;;;12.20;92.00;;;;;;5037727;28;20029;-57
2021/05/29 06:11:58;;;;;;;22.75;16.13;;;11.90;92.10;;;;;;5052180;28;20037;-54
2021/05/29 06:19:55;;;;;;;20.33;14.45;;;12.20;92.00;;;;;;5051597;28;20037;-53
2021/05/29 06:22:20;;;;;;;20.25;14.48;;;12.40;91.50;;;;;;5052439;28;20059;-54
2021/05/29 06:24:46;;;;;;;20.17;14.43;;;12.50;91.50;;;;;;5053265;28;20040;-55
2021/05/29 06:27:12;;;;;;;16.63;13.55;;;12.50;91.20;;;;;;5061489;28;20045;-54
2021/05/29 06:29:37;;;;;;;17.70;13.60;;;12.30;91.60;;;;;;5051287;28;20056;-52
2021/05/29 06:32:03;;;;;;;22.42;14.93;;;12.40;91.90;;;;;;5059842;28;20472;-55
2021/05/29 06:34:29;;;;;;;21.50;14.40;;;12.30;91.90;;;;;;5051987;28;20045;-58
2021/05/29 06:36:54;;;;;;;18.95;13.30;;;12.30;92.00;;;;;;5059301;28;20037;-55
2021/05/29 06:39:21;;;;;;;20.23;13.70;;;12.20;91.70;;;;;;5051803;28;20037;-55
2021/05/29 06:41:47;;;;;;;16.23;13.38;;;11.90;92.20;;;;;;5052093;28;20037;-57
2021/05/29 06:44:13;;;;;;;19.55;14.10;;;12.00;92.10;;;;;;5052205;28;20017;-55
2021/05/29 06:46:40;;;;;;;18.33;13.32;;;12.10;91.70;;;;;;5058895;28;20090;-56
2021/05/29 06:49:06;;;;;;;19.90;15.38;;;12.30;91.70;;;;;;5051594;28;20079;-54
2021/05/29 06:51:44;;;;;;;19.95;14.43;;;12.50;91.10;;;;;;5042338;28;20033;-56
2021/05/29 06:54:19;;;;;;;18.92;15.65;;;12.90;90.80;;;;;;5036029;28;20443;-54
2021/05/29 06:59:29;;;;;;;21.08;17.10;;;12.80;90.50;;;;;;5038360;28;20028;-54
2021/05/29 07:01:55;;;;;;;22.25;16.58;;;12.80;90.50;;;;;;5052015;28;20566;-58
2021/05/29 07:04:20;;;;;;;21.38;16.52;;;12.70;90.60;;;;;;5049532;28;20485;-55
2021/05/29 07:06:46;;;;;;;22.35;16.05;;;12.80;90.50;;;;;;5048222;28;20080;-51
2021/05/29 07:09:14;;;;;;;22.45;16.90;;;12.80;90.50;;;;;;5051770;28;20052;-55
2021/05/29 07:11:40;;;;;;;22.00;15.95;;;12.40;91.30;;;;;;5051177;28;20033;-59
2021/05/29 07:14:06;;;;;;;21.48;17.30;;;12.40;91.40;;;;;;5051502;28;20171;-58
2021/05/29 07:16:35;;;;;;;22.27;17.90;;;12.40;91.30;;;;;;5051203;28;20107;-56
2021/05/29 07:19:01;;;;;;;25.88;17.65;;;12.30;91.30;;;;;;5050493;28;20400;-54
2021/05/29 07:21:26;;;;;;;21.23;15.48;;;12.20;91.50;;;;;;5051412;28;20036;-56
2021/05/29 07:23:52;;;;;;;20.60;15.07;;;12.30;91.10;;;;;;5051806;28;20037;-52
2021/05/29 07:26:18;;;;;;;20.15;15.88;;;12.10;91.00;;;;;;5069123;28;20049;-59
2021/05/29 07:28:43;;;;;;;21.17;15.45;;;12.10;91.40;;;;;;5054537;28;20037;-57
2021/05/29 07:31:09;;;;;;;20.60;16.30;;;12.20;91.30;;;;;;5060110;28;20043;-55
2021/05/29 07:33:35;;;;;;;20.02;15.15;;;12.30;91.20;;;;;;5054511;28;20036;-56
2021/05/29 07:36:00;;;;;;;21.02;14.93;;;12.40;91.10;;;;;;5050328;28;20037;-55
2021/05/29 07:38:26;;;;;;;15.73;12.65;;;12.50;90.90;;;;;;5053780;28;20037;-54
2021/05/29 07:40:52;;;;;;;17.90;12.13;;;12.50;90.40;;;;;;5055326;28;20500;-55
2021/05/29 07:43:19;;;;;;;16.92;12.70;;;12.50;90.20;;;;;;5057575;28;20044;-57
2021/05/29 07:45:45;;;;;;;16.98;12.30;;;12.70;89.90;;;;;;5054843;28;20032;-58
2021/05/29 07:48:12;;;;;;;15.88;12.52;;;12.50;90.20;;;;;;5054363;28;20440;-55
2021/05/29 07:50:57;;;;;;;17.40;12.05;;;12.60;90.20;;;;;;5036790;28;20036;-54
2021/05/29 07:53:24;;;;;;;15.02;12.05;;;12.80;90.00;;;;;;5054255;28;20496;-56
2021/05/29 07:55:49;;;;;;;18.70;11.63;;;12.90;89.20;;;;;;5050436;28;20028;-56
2021/05/29 07:58:15;;;;;;;16.13;11.77;;;13.00;89.50;;;;;;5024820;28;20033;-51
2021/05/29 08:00:43;;;;;;;13.50;9.77;;;13.40;88.30;;;;;;5047043;28;20056;-53
2021/05/29 08:03:09;;;;;;;11.75;9.85;;;13.40;86.50;;;;;;5046139;28;20043;-55
2021/05/29 08:05:35;;;;;;;13.27;9.70;;;13.50;86.30;;;;;;5045789;28;20029;-55
2021/05/29 08:08:00;;;;;;;13.65;10.38;;;13.50;85.30;;;;;;5048585;28;20071;-56
2021/05/29 08:10:26;;;;;;;12.85;10.02;;;13.40;85.20;;;;;;5047577;28;20080;-53
2021/05/29 08:12:52;;;;;;;16.83;10.60;;;13.40;85.00;;;;;;5048818;28;20044;-55
2021/05/29 08:15:17;;;;;;;14.13;11.98;;;13.70;85.00;;;;;;5024900;28;20088;-57
2021/05/29 08:17:43;;;;;;;13.50;9.88;;;13.70;85.90;;;;;;5054664;28;20047;-55
2021/05/29 08:20:09;;;;;;;13.30;10.55;;;13.70;84.70;;;;;;5045301;28;20505;-57
2021/05/29 08:22:35;;;;;;;17.35;10.32;;;13.80;84.50;;;;;;5048328;28;20060;-54
2021/05/29 08:25:00;;;;;;;11.02;9.70;;;13.80;84.20;;;;;;5045261;28;20060;-52
2021/05/29 08:27:26;;;;;;;11.45;8.73;;;13.70;83.90;;;;;;5046825;28;20038;-54
2021/05/29 08:29:52;;;;;;;13.80;9.38;;;13.90;83.80;;;;;;5043936;28;20037;-56
2021/05/29 08:32:17;;;;;;;12.13;9.55;;;14.00;83.40;;;;;;5040999;28;20025;-56
2021/05/29 08:34:43;;;;;;;11.43;8.73;;;14.10;82.90;;;;;;5029328;28;20037;-55
2021/05/29 08:37:09;;;;;;;13.38;9.10;;;14.20;82.10;;;;;;5045909;28;20039;-55
2021/05/29 08:39:34;;;;;;;14.20;10.00;;;14.40;81.30;;;;;;5052996;28;20029;-59
2021/05/29 08:42:04;;;;;;;9.90;8.90;;;14.60;80.90;;;;;;5033194;28;20037;-55
2021/05/29 08:44:29;;;;;;;11.70;9.00;;;14.60;80.90;;;;;;5051299;28;20108;-59
2021/05/29 08:46:55;;;;;;;10.27;8.35;;;14.70;79.40;;;;;;5053434;28;20564;-54
2021/05/29 08:49:21;;;;;;;12.13;8.45;;;14.50;79.10;;;;;;5053094;28;20078;-54
2021/05/29 08:51:47;;;;;;;11.75;8.38;;;14.20;81.00;;;;;;5054038;28;20503;-55
2021/05/29 08:54:13;;;;;;;10.90;8.80;;;14.40;80.40;;;;;;5053216;28;20112;-56
2021/05/29 08:56:38;;;;;;;13.80;8.52;;;14.70;79.60;;;;;;5053080;28;20553;-54
2021/05/29 08:59:04;;;;;;;11.63;9.57;;;14.80;79.60;;;;;;5054255;28;20037;-55
2021/05/29 09:01:30;;;;;;;10.30;8.75;;;14.70;79.70;;;;;;5052492;28;20159;-55
2021/05/29 09:04:03;;;;;;;11.98;9.23;;;14.50;80.50;;;;;;5054776;28;20037;-55
2021/05/29 09:06:28;;;;;;;12.50;9.35;;;14.40;80.00;;;;;;5052823;28;20039;-60
2021/05/29 09:08:59;;;;;;;12.50;9.93;;;14.30;81.40;;;;;;5056641;28;20040;-54
2021/05/29 09:11:52;;;;;;;14.23;10.43;;;14.20;82.20;;;;;;5052886;28;20033;-55
2021/05/29 09:14:29;;;;;;;12.93;9.55;;;14.20;82.50;;;;;;5035417;28;20067;-55
2021/05/29 09:17:09;;;;;;;13.93;8.88;;;14.10;82.00;;;;;;5052500;28;20033;-53
2021/05/29 09:20:13;;;;;;;11.18;8.10;;;14.30;81.80;;;;;;5046859;28;20044;-57
2021/05/29 09:22:40;;;;;;;12.20;8.20;;;14.30;80.60;;;;;;5027742;28;20036;-54
2021/05/29 09:25:09;;;;;;;10.43;8.40;;;14.20;80.50;;;;;;5046364;28;20029;-63
2021/05/29 09:27:38;;;;;;;11.90;8.60;;;14.10;81.40;;;;;;5056704;28;20024;-54
2021/05/29 09:30:08;;;;;;;12.02;9.10;;;14.20;81.30;;;;;;5057396;28;20124;-52
2021/05/29 09:32:36;;;;;;;11.95;9.05;;;14.10;82.10;;;;;;5048832;28;20060;-56
2021/05/29 09:35:09;;;;;;;10.85;9.10;;;14.00;82.70;;;;;;5053438;28;20021;-54
2021/05/29 09:37:36;;;;;;;13.77;8.77;;;14.00;82.60;;;;;;5051709;28;20097;-53
2021/05/29 09:40:10;;;;;;;10.70;8.32;;;14.20;81.00;;;;;;5052210;28;20039;-53
2021/05/29 09:42:41;;;;;;;10.80;9.23;;;14.50;80.30;;;;;;5037835;28;20033;-55
2021/05/29 09:45:28;;;;;;;10.75;8.02;;;14.90;79.40;;;;;;5054008;28;20497;-54
2021/05/29 09:48:17;;;;;;;9.65;7.97;;;14.90;78.40;;;;;;5050888;28;20074;-55
2021/05/29 09:51:06;;;;;;;11.73;8.60;;;14.80;77.30;;;;;;5040782;28;20031;-56
2021/05/29 09:53:54;;;;;;;11.18;7.88;;;14.80;78.00;;;;;;5058945;28;20036;-50
2021/05/29 09:56:22;;;;;;;10.07;7.45;;;15.10;77.80;;;;;;5052309;28;20411;-53
2021/05/29 09:58:55;;;;;;;10.40;8.02;;;15.20;77.20;;;;;;5058999;28;20040;-55
2021/05/29 10:01:41;;;;;;;12.15;8.32;;;15.40;77.60;;;;;;5040049;28;20099;-56
2021/05/29 10:04:08;;;;;;;10.05;6.22;;;15.60;76.00;;;;;;5060420;28;20028;-59
2021/05/29 10:06:34;;;;;;;9.23;6.82;;;15.70;75.20;;;;;;5052084;28;20021;-54
2021/05/29 10:09:02;;;;;;;11.90;7.18;;;16.00;74.70;;;;;;5052067;28;20119;-53
2021/05/29 10:11:28;;;;;;;9.80;6.55;;;16.10;72.90;;;;;;5052447;28;20029;-54
2021/05/29 10:13:54;;;;;;;9.27;6.22;;;16.40;73.00;;;;;;5061866;28;20119;-54
2021/05/29 10:16:20;;;;;;;8.70;6.85;;;16.20;71.80;;;;;;5035275;28;20499;-54
2021/05/29 10:18:52;;;;;;;9.85;6.70;;;16.30;71.00;;;;;;5051924;28;20091;-57
2021/05/29 10:21:19;;;;;;;7.57;5.80;;;16.20;71.40;;;;;;5051497;28;20029;-53
2021/05/29 10:23:46;;;;;;;8.57;5.82;;;16.00;71.30;;;;;;5047948;28;20041;-53
2021/05/29 10:26:15;;;;;;;10.07;7.00;;;16.00;72.50;;;;;;5063459;28;20024;-55
2021/05/29 10:28:42;;;;;;;9.75;7.72;;;15.80;74.20;;;;;;5050874;28;20037;-50
2021/05/29 10:31:07;;;;;;;8.20;7.40;;;15.50;75.60;;;;;;5053598;28;20037;-50
2021/05/29 10:33:44;;;;;;;16.02;13.60;;;15.50;76.10;;;;;;5051641;28;20079;-53
2021/05/29 10:36:34;;;;;;;9.90;7.63;;;15.50;75.40;;;;;;5047720;28;20064;-52
2021/05/29 10:39:00;;;;;;;11.48;8.77;;;15.50;75.20;;;;;;5050997;28;20048;-53
2021/05/29 10:41:48;;;;;;;9.32;7.85;;;15.60;75.10;;;;;;5054939;28;20072;-56
2021/05/29 10:44:27;;;;;;;11.63;8.38;;;15.80;75.90;;;;;;5063572;28;20064;-52
2021/05/29 10:47:22;;;;;;;11.63;8.23;;;15.60;75.60;;;;;;5045584;28;20048;-50
2021/05/29 10:49:48;;;;;;;10.65;7.93;;;15.60;75.00;;;;;;5036793;28;20041;-52
2021/05/29 10:52:36;;;;;;;16.02;7.68;;;15.60;74.70;;;;;;5051713;28;20366;-55
2021/05/29 10:55:14;;;;;;;9.95;6.97;;;16.10;74.30;;;;;;5039348;28;20122;-56
2021/05/29 10:57:51;;;;;;;9.30;7.88;;;16.40;73.00;;;;;;5051241;28;20078;-56
2021/05/29 11:00:35;;;;;;;11.68;8.07;;;16.60;72.80;;;;;;5054668;28;20025;-53
2021/05/29 11:03:24;;;;;;;10.98;7.90;;;16.50;75.40;;;;;;5046949;28;20381;-51
2021/05/29 11:05:56;;;;;;;10.20;7.72;;;15.90;74.80;;;;;;5048979;28;20033;-54
2021/05/29 11:08:47;;;;;;;11.55;8.30;;;15.70;75.90;;;;;;5044357;28;20033;-55
2021/05/29 11:11:38;;;;;;;11.07;8.02;;;15.50;75.90;;;;;;5033692;28;20028;-52
2021/05/29 11:14:17;;;;;;;10.45;7.57;;;15.60;75.40;;;;;;5049230;28;20057;-49
2021/05/29 11:16:49;;;;;;;11.20;7.28;;;15.60;75.50;;;;;;5037644;28;20034;-56
2021/05/29 11:19:24;;;;;;;17.88;13.18;;;15.60;76.20;;;;;;5038517;28;20041;-50
2021/05/29 11:22:05;;;;;;;9.07;7.35;;;15.80;75.30;;;;;;5042515;28;20090;-52
2021/05/29 11:24:42;;;;;;;7.95;6.72;;;16.10;74.30;;;;;;5045217;28;20029;-52
2021/05/29 11:27:20;;;;;;;10.90;8.23;;;16.40;74.20;;;;;;5063577;28;20029;-54
2021/05/29 11:29:53;;;;;;;8.45;7.55;;;16.20;73.60;;;;;;5054674;28;20071;-52
2021/05/29 11:35:19;;;;;;;11.23;7.82;;;15.70;74.00;;;;;;5063225;28;20032;-54
2021/05/29 11:37:58;;;;;;;9.73;8.03;;;15.50;75.40;;;;;;5053486;28;20106;-50
2021/05/29 11:40:54;;;;;;;10.02;7.93;;;15.30;75.10;;;;;;5044113;28;20044;-56
2021/05/29 11:43:31;;;;;;;7.32;6.57;;;15.20;76.00;;;;;;5053580;28;20032;-52
2021/05/29 11:45:58;;;;;;;9.40;6.65;;;15.70;73.40;;;;;;5054719;28;20480;-52
2021/05/29 11:48:29;;;;;;;10.02;7.07;;;15.80;73.20;;;;;;5054275;28;20036;-51
2021/05/29 11:51:10;;;;;;;8.23;7.15;;;16.10;71.80;;;;;;5054426;28;20028;-54
2021/05/29 11:53:54;;;;;;;7.97;6.72;;;16.20;71.80;;;;;;5054921;28;20088;-52
2021/05/29 11:56:31;;;;;;;8.30;6.93;;;16.20;71.20;;;;;;5054050;28;20365;-52
2021/05/29 11:58:58;;;;;;;8.85;6.78;;;15.90;72.20;;;;;;5069540;28;20533;-52
2021/05/29 12:01:32;;;;;;;9.57;7.45;;;16.10;73.00;;;;;;5053589;28;20037;-53
2021/05/29 12:04:00;;;;;;;11.23;7.95;;;16.30;71.90;;;;;;5057160;28;20039;-52
2021/05/29 12:06:42;;;;;;;12.85;9.20;;;16.00;72.90;;;;;;5041933;28;20120;-56
2021/05/29 12:09:24;;;;;;;12.57;8.93;;;15.90;74.40;;;;;;5056248;28;20044;-54
2021/05/29 12:11:52;;;;;;;9.57;7.80;;;16.00;74.10;;;;;;5048248;28;20025;-54
2021/05/29 12:14:37;;;;;;;12.20;9.13;;;15.90;73.80;;;;;;5083809;28;20423;-56
2021/05/29 12:17:06;;;;;;;11.60;8.48;;;16.00;74.00;;;;;;5043645;28;20052;-53
2021/05/29 12:19:38;;;;;;;10.98;8.82;;;16.30;73.10;;;;;;5073876;28;20103;-54
2021/05/29 12:22:11;;;;;;;9.35;8.25;;;16.20;75.50;;;;;;5073529;28;20024;-53
2021/05/29 12:24:40;;;;;;;11.13;9.18;;;16.30;75.40;;;;;;5070211;28;20044;-53
2021/05/29 12:27:09;;;;;;;10.85;7.82;;;16.50;74.00;;;;;;5073693;28;20036;-52
2021/05/29 12:29:35;;;;;;;9.20;7.70;;;16.10;76.20;;;;;;5073652;28;20038;-54
2021/05/29 12:32:01;;;;;;;12.45;9.48;;;16.30;75.20;;;;;;5074181;28;20025;-55
2021/05/29 12:34:29;;;;;;;12.57;8.27;;;16.20;74.90;;;;;;5066163;28;20036;-54
2021/05/29 12:36:56;;;;;;;9.73;7.85;;;16.10;74.30;;;;;;5073365;28;20033;-54
2021/05/29 12:39:22;;;;;;;9.18;7.63;;;16.30;74.10;;;;;;5074138;28;20169;-52
2021/05/29 12:41:48;;;;;;;8.60;7.70;;;16.70;72.40;;;;;;5073163;28;20060;-51
2021/05/29 12:44:14;;;;;;;9.27;8.20;;;16.70;72.30;;;;;;5073507;28;20581;-57
2021/05/29 12:46:40;;;;;;;10.57;7.78;;;16.90;73.60;;;;;;5073432;28;20035;-55
2021/05/29 12:49:14;;;;;;;11.82;8.10;;;16.80;72.00;;;;;;5073408;28;20403;-52
2021/05/29 12:51:48;;;;;;;9.45;8.05;;;16.60;73.10;;;;;;5073497;28;20029;-53
2021/05/29 12:54:14;;;;;;;10.07;8.40;;;16.40;74.20;;;;;;5073794;28;20036;-52
2021/05/29 12:56:57;;;;;;;9.38;8.07;;;16.20;73.50;;;;;;5072715;28;20044;-55
2021/05/29 12:59:25;;;;;;;9.63;7.55;;;16.30;73.20;;;;;;5061313;28;20039;-55